sensor_id;sensor_type;location;lat;lon;timestamp;P1;durP1;ratioP1;P2;durP2;ratioP2
43042;SDS011;28667;50.758;6.096;2023-04-16T00:02:36;4.78;;;1.48;;
43042;SDS011;28667;50.758;6.096;2023-04-16T00:05:02;4.20;;;1.50;;
43042;SDS011;28667;50.758;6.096;2023-04-16T00:07:28;1.40;;;1.30;;
43042;SDS011;28667;50.758;6.096;2023-04-16T00:09:53;1.60;;;1.50;;
43042;SDS011;28667;50.758;6.096;2023-04-16T00:12:19;2.45;;;1.33;;
43042;SDS011;28667;50.758;6.096;2023-04-16T00:14:46;2.15;;;1.20;;
43042;SDS011;28667;50.758;6.096;2023-04-16T00:17:11;4.53;;;1.70;;
43042;SDS011;28667;50.758;6.096;2023-04-16T00:19:37;2.22;;;1.60;;
43042;SDS011;28667;50.758;6.096;2023-04-16T00:22:03;1.80;;;1.63;;
43042;SDS011;28667;50.758;6.096;2023-04-16T00:24:28;2.22;;;1.60;;
43042;SDS011;28667;50.758;6.096;2023-04-16T00:26:54;2.58;;;1.70;;
43042;SDS011;28667;50.758;6.096;2023-04-16T00:29:21;5.85;;;1.70;;
43042;SDS011;28667;50.758;6.096;2023-04-16T00:31:47;2.50;;;1.83;;
43042;SDS011;28667;50.758;6.096;2023-04-16T00:34:12;8.00;;;1.92;;
43042;SDS011;28667;50.758;6.096;2023-04-16T00:36:38;1.60;;;1.50;;
43042;SDS011;28667;50.758;6.096;2023-04-16T00:39:04;2.60;;;1.65;;
43042;SDS011;28667;50.758;6.096;2023-04-16T00:41:30;3.70;;;2.17;;
43042;SDS011;28667;50.758;6.096;2023-04-16T00:43:56;3.20;;;1.88;;
43042;SDS011;28667;50.758;6.096;2023-04-16T00:46:22;2.20;;;1.83;;
43042;SDS011;28667;50.758;6.096;2023-04-16T00:48:48;4.38;;;1.90;;
43042;SDS011;28667;50.758;6.096;2023-04-16T00:51:17;3.67;;;2.40;;
43042;SDS011;28667;50.758;6.096;2023-04-16T00:53:45;10.00;;;2.33;;
43042;SDS011;28667;50.758;6.096;2023-04-16T00:56:11;6.03;;;2.58;;
43042;SDS011;28667;50.758;6.096;2023-04-16T00:58:38;5.22;;;2.53;;
43042;SDS011;28667;50.758;6.096;2023-04-16T01:01:04;3.33;;;2.50;;
43042;SDS011;28667;50.758;6.096;2023-04-16T01:03:35;3.50;;;2.47;;
43042;SDS011;28667;50.758;6.096;2023-04-16T01:06:09;8.38;;;2.55;;
43042;SDS011;28667;50.758;6.096;2023-04-16T01:08:36;4.78;;;2.60;;
43042;SDS011;28667;50.758;6.096;2023-04-16T01:11:02;7.63;;;3.30;;
43042;SDS011;28667;50.758;6.096;2023-04-16T01:13:28;3.63;;;2.85;;
43042;SDS011;28667;50.758;6.096;2023-04-16T01:15:54;4.43;;;2.35;;
43042;SDS011;28667;50.758;6.096;2023-04-16T01:18:20;7.43;;;3.25;;
43042;SDS011;28667;50.758;6.096;2023-04-16T01:20:48;3.22;;;2.90;;
43042;SDS011;28667;50.758;6.096;2023-04-16T01:23:17;2.80;;;2.42;;
43042;SDS011;28667;50.758;6.096;2023-04-16T01:25:44;4.28;;;3.13;;
43042;SDS011;28667;50.758;6.096;2023-04-16T01:28:10;8.23;;;2.83;;
43042;SDS011;28667;50.758;6.096;2023-04-16T01:30:36;3.53;;;2.97;;
43042;SDS011;28667;50.758;6.096;2023-04-16T01:33:17;6.97;;;3.30;;
43042;SDS011;28667;50.758;6.096;2023-04-16T01:35:43;9.43;;;3.03;;
43042;SDS011;28667;50.758;6.096;2023-04-16T01:38:09;7.35;;;4.00;;
43042;SDS011;28667;50.758;6.096;2023-04-16T01:40:35;4.25;;;3.15;;
43042;SDS011;28667;50.758;6.096;2023-04-16T01:43:02;6.80;;;4.07;;
43042;SDS011;28667;50.758;6.096;2023-04-16T01:45:29;5.90;;;3.53;;
43042;SDS011;28667;50.758;6.096;2023-04-16T01:47:56;5.03;;;3.42;;
43042;SDS011;28667;50.758;6.096;2023-04-16T01:50:21;8.88;;;4.15;;
43042;SDS011;28667;50.758;6.096;2023-04-16T01:52:48;8.95;;;4.15;;
43042;SDS011;28667;50.758;6.096;2023-04-16T01:55:14;8.70;;;3.92;;
43042;SDS011;28667;50.758;6.096;2023-04-16T01:57:39;9.05;;;4.00;;
43042;SDS011;28667;50.758;6.096;2023-04-16T02:00:05;6.75;;;4.13;;
43042;SDS011;28667;50.758;6.096;2023-04-16T02:02:43;4.80;;;3.90;;
43042;SDS011;28667;50.758;6.096;2023-04-16T02:05:11;5.57;;;3.38;;
43042;SDS011;28667;50.758;6.096;2023-04-16T02:07:36;7.13;;;3.47;;
43042;SDS011;28667;50.758;6.096;2023-04-16T02:10:02;4.38;;;3.35;;
43042;SDS011;28667;50.758;6.096;2023-04-16T02:12:30;6.15;;;4.07;;
43042;SDS011;28667;50.758;6.096;2023-04-16T02:14:56;10.02;;;4.85;;
43042;SDS011;28667;50.758;6.096;2023-04-16T02:17:24;6.80;;;4.40;;
43042;SDS011;28667;50.758;6.096;2023-04-16T02:20:00;7.50;;;3.92;;
43042;SDS011;28667;50.758;6.096;2023-04-16T02:22:30;4.68;;;3.20;;
43042;SDS011;28667;50.758;6.096;2023-04-16T02:24:56;7.63;;;3.60;;
43042;SDS011;28667;50.758;6.096;2023-04-16T02:27:21;5.00;;;3.35;;
43042;SDS011;28667;50.758;6.096;2023-04-16T02:29:50;6.38;;;3.30;;
43042;SDS011;28667;50.758;6.096;2023-04-16T02:32:16;5.18;;;3.58;;
43042;SDS011;28667;50.758;6.096;2023-04-16T02:34:44;4.13;;;3.13;;
43042;SDS011;28667;50.758;6.096;2023-04-16T02:37:11;4.13;;;3.38;;
43042;SDS011;28667;50.758;6.096;2023-04-16T02:39:39;5.95;;;3.80;;
43042;SDS011;28667;50.758;6.096;2023-04-16T02:42:05;6.30;;;3.15;;
43042;SDS011;28667;50.758;6.096;2023-04-16T02:44:30;4.40;;;3.13;;
43042;SDS011;28667;50.758;6.096;2023-04-16T02:46:56;4.20;;;3.45;;
43042;SDS011;28667;50.758;6.096;2023-04-16T02:49:22;6.72;;;4.07;;
43042;SDS011;28667;50.758;6.096;2023-04-16T02:51:48;4.38;;;2.95;;
43042;SDS011;28667;50.758;6.096;2023-04-16T02:54:13;8.57;;;3.65;;
43042;SDS011;28667;50.758;6.096;2023-04-16T02:56:39;13.93;;;4.47;;
43042;SDS011;28667;50.758;6.096;2023-04-16T02:59:05;6.97;;;3.75;;
43042;SDS011;28667;50.758;6.096;2023-04-16T03:01:31;9.88;;;4.07;;
43042;SDS011;28667;50.758;6.096;2023-04-16T03:03:57;6.53;;;4.78;;
43042;SDS011;28667;50.758;6.096;2023-04-16T03:06:22;8.57;;;4.45;;
43042;SDS011;28667;50.758;6.096;2023-04-16T03:08:48;10.57;;;4.38;;
43042;SDS011;28667;50.758;6.096;2023-04-16T03:11:14;8.52;;;4.78;;
43042;SDS011;28667;50.758;6.096;2023-04-16T03:13:40;10.85;;;5.05;;
43042;SDS011;28667;50.758;6.096;2023-04-16T03:16:06;9.55;;;4.35;;
43042;SDS011;28667;50.758;6.096;2023-04-16T03:18:31;10.50;;;5.35;;
43042;SDS011;28667;50.758;6.096;2023-04-16T03:20:57;7.07;;;4.22;;
43042;SDS011;28667;50.758;6.096;2023-04-16T03:23:23;8.85;;;5.28;;
43042;SDS011;28667;50.758;6.096;2023-04-16T03:25:49;7.55;;;4.68;;
43042;SDS011;28667;50.758;6.096;2023-04-16T03:28:16;10.80;;;5.45;;
43042;SDS011;28667;50.758;6.096;2023-04-16T03:30:42;10.43;;;5.20;;
43042;SDS011;28667;50.758;6.096;2023-04-16T03:33:14;9.77;;;4.70;;
43042;SDS011;28667;50.758;6.096;2023-04-16T03:35:39;9.60;;;4.55;;
43042;SDS011;28667;50.758;6.096;2023-04-16T03:38:06;8.18;;;5.03;;
43042;SDS011;28667;50.758;6.096;2023-04-16T03:40:32;9.75;;;5.43;;
43042;SDS011;28667;50.758;6.096;2023-04-16T03:42:58;5.25;;;4.57;;
43042;SDS011;28667;50.758;6.096;2023-04-16T03:45:26;8.27;;;4.00;;
43042;SDS011;28667;50.758;6.096;2023-04-16T03:47:52;8.48;;;5.50;;
43042;SDS011;28667;50.758;6.096;2023-04-16T03:50:20;8.60;;;5.00;;
43042;SDS011;28667;50.758;6.096;2023-04-16T03:52:46;7.15;;;4.55;;
43042;SDS011;28667;50.758;6.096;2023-04-16T03:55:14;12.90;;;5.45;;
43042;SDS011;28667;50.758;6.096;2023-04-16T03:57:40;11.07;;;5.30;;
43042;SDS011;28667;50.758;6.096;2023-04-16T04:00:10;6.93;;;4.60;;
43042;SDS011;28667;50.758;6.096;2023-04-16T04:03:01;7.20;;;5.05;;
43042;SDS011;28667;50.758;6.096;2023-04-16T04:05:27;8.90;;;4.93;;
43042;SDS011;28667;50.758;6.096;2023-04-16T04:07:53;5.50;;;4.55;;
43042;SDS011;28667;50.758;6.096;2023-04-16T04:10:19;9.50;;;5.25;;
43042;SDS011;28667;50.758;6.096;2023-04-16T04:12:44;7.05;;;4.53;;
43042;SDS011;28667;50.758;6.096;2023-04-16T04:15:11;8.13;;;4.60;;
43042;SDS011;28667;50.758;6.096;2023-04-16T04:17:36;6.53;;;4.13;;
43042;SDS011;28667;50.758;6.096;2023-04-16T04:20:02;6.72;;;3.90;;
43042;SDS011;28667;50.758;6.096;2023-04-16T04:22:29;6.68;;;4.13;;
43042;SDS011;28667;50.758;6.096;2023-04-16T04:24:55;8.93;;;3.95;;
43042;SDS011;28667;50.758;6.096;2023-04-16T04:27:21;6.35;;;3.88;;
43042;SDS011;28667;50.758;6.096;2023-04-16T04:29:47;4.53;;;3.72;;
43042;SDS011;28667;50.758;6.096;2023-04-16T04:32:13;7.53;;;4.43;;
43042;SDS011;28667;50.758;6.096;2023-04-16T04:34:38;6.40;;;4.88;;
43042;SDS011;28667;50.758;6.096;2023-04-16T04:37:06;7.43;;;5.20;;
43042;SDS011;28667;50.758;6.096;2023-04-16T04:39:32;6.63;;;4.63;;
43042;SDS011;28667;50.758;6.096;2023-04-16T04:41:57;7.70;;;3.92;;
43042;SDS011;28667;50.758;6.096;2023-04-16T04:44:23;6.55;;;4.20;;
43042;SDS011;28667;50.758;6.096;2023-04-16T04:46:50;6.50;;;4.47;;
43042;SDS011;28667;50.758;6.096;2023-04-16T04:49:17;6.32;;;4.13;;
43042;SDS011;28667;50.758;6.096;2023-04-16T04:51:42;7.55;;;4.55;;
43042;SDS011;28667;50.758;6.096;2023-04-16T04:54:08;8.13;;;3.83;;
43042;SDS011;28667;50.758;6.096;2023-04-16T04:56:34;6.95;;;4.13;;
43042;SDS011;28667;50.758;6.096;2023-04-16T04:58:59;7.10;;;4.00;;
43042;SDS011;28667;50.758;6.096;2023-04-16T05:01:25;3.58;;;3.08;;
43042;SDS011;28667;50.758;6.096;2023-04-16T05:03:51;4.75;;;3.42;;
43042;SDS011;28667;50.758;6.096;2023-04-16T05:06:17;3.85;;;3.45;;
43042;SDS011;28667;50.758;6.096;2023-04-16T05:08:42;6.30;;;4.03;;
43042;SDS011;28667;50.758;6.096;2023-04-16T05:11:08;6.03;;;3.47;;
43042;SDS011;28667;50.758;6.096;2023-04-16T05:13:34;8.40;;;4.13;;
43042;SDS011;28667;50.758;6.096;2023-04-16T05:16:00;5.55;;;3.53;;
43042;SDS011;28667;50.758;6.096;2023-04-16T05:18:26;4.97;;;3.90;;
43042;SDS011;28667;50.758;6.096;2023-04-16T05:20:52;6.50;;;4.00;;
43042;SDS011;28667;50.758;6.096;2023-04-16T05:23:17;6.75;;;3.67;;
43042;SDS011;28667;50.758;6.096;2023-04-16T05:25:43;6.45;;;4.72;;
43042;SDS011;28667;50.758;6.096;2023-04-16T05:28:09;5.47;;;4.13;;
43042;SDS011;28667;50.758;6.096;2023-04-16T05:30:35;6.57;;;4.03;;
43042;SDS011;28667;50.758;6.096;2023-04-16T05:33:00;7.18;;;3.90;;
43042;SDS011;28667;50.758;6.096;2023-04-16T05:35:26;5.65;;;3.33;;
43042;SDS011;28667;50.758;6.096;2023-04-16T05:37:52;8.55;;;4.60;;
43042;SDS011;28667;50.758;6.096;2023-04-16T05:40:17;10.35;;;4.47;;
43042;SDS011;28667;50.758;6.096;2023-04-16T05:42:43;7.90;;;4.28;;
43042;SDS011;28667;50.758;6.096;2023-04-16T05:45:09;4.88;;;3.70;;
43042;SDS011;28667;50.758;6.096;2023-04-16T05:47:35;5.78;;;4.13;;
43042;SDS011;28667;50.758;6.096;2023-04-16T05:50:00;6.93;;;3.75;;
43042;SDS011;28667;50.758;6.096;2023-04-16T05:52:26;9.52;;;3.42;;
43042;SDS011;28667;50.758;6.096;2023-04-16T05:54:52;5.03;;;3.45;;
43042;SDS011;28667;50.758;6.096;2023-04-16T05:57:17;7.28;;;4.45;;
43042;SDS011;28667;50.758;6.096;2023-04-16T05:59:43;6.25;;;4.50;;
43042;SDS011;28667;50.758;6.096;2023-04-16T06:02:09;5.70;;;3.75;;
43042;SDS011;28667;50.758;6.096;2023-04-16T06:04:35;6.20;;;4.07;;
43042;SDS011;28667;50.758;6.096;2023-04-16T06:07:01;5.28;;;3.75;;
43042;SDS011;28667;50.758;6.096;2023-04-16T06:09:27;4.97;;;3.65;;
43042;SDS011;28667;50.758;6.096;2023-04-16T06:11:53;4.35;;;3.35;;
43042;SDS011;28667;50.758;6.096;2023-04-16T06:14:19;6.97;;;4.15;;
43042;SDS011;28667;50.758;6.096;2023-04-16T06:16:45;6.13;;;3.85;;
43042;SDS011;28667;50.758;6.096;2023-04-16T06:19:11;4.78;;;3.20;;
43042;SDS011;28667;50.758;6.096;2023-04-16T06:21:36;5.88;;;3.33;;
43042;SDS011;28667;50.758;6.096;2023-04-16T06:24:02;6.43;;;4.05;;
43042;SDS011;28667;50.758;6.096;2023-04-16T06:26:28;5.60;;;3.50;;
43042;SDS011;28667;50.758;6.096;2023-04-16T06:28:54;7.10;;;3.53;;
43042;SDS011;28667;50.758;6.096;2023-04-16T06:31:20;6.10;;;3.85;;
43042;SDS011;28667;50.758;6.096;2023-04-16T06:33:45;6.22;;;3.95;;
43042;SDS011;28667;50.758;6.096;2023-04-16T06:36:11;5.60;;;3.47;;
43042;SDS011;28667;50.758;6.096;2023-04-16T06:38:37;5.65;;;3.53;;
43042;SDS011;28667;50.758;6.096;2023-04-16T06:41:02;5.72;;;3.65;;
43042;SDS011;28667;50.758;6.096;2023-04-16T06:43:28;9.68;;;3.55;;
43042;SDS011;28667;50.758;6.096;2023-04-16T06:45:56;5.35;;;3.33;;
43042;SDS011;28667;50.758;6.096;2023-04-16T06:48:22;8.07;;;4.03;;
43042;SDS011;28667;50.758;6.096;2023-04-16T06:50:50;6.10;;;3.53;;
43042;SDS011;28667;50.758;6.096;2023-04-16T06:53:16;5.68;;;3.78;;
43042;SDS011;28667;50.758;6.096;2023-04-16T06:55:41;5.18;;;3.53;;
43042;SDS011;28667;50.758;6.096;2023-04-16T06:58:07;5.95;;;4.00;;
43042;SDS011;28667;50.758;6.096;2023-04-16T07:00:33;5.72;;;3.88;;
43042;SDS011;28667;50.758;6.096;2023-04-16T07:02:59;7.38;;;4.43;;
43042;SDS011;28667;50.758;6.096;2023-04-16T07:05:25;8.57;;;3.53;;
43042;SDS011;28667;50.758;6.096;2023-04-16T07:07:51;5.63;;;3.40;;
43042;SDS011;28667;50.758;6.096;2023-04-16T07:10:17;8.70;;;3.53;;
43042;SDS011;28667;50.758;6.096;2023-04-16T07:12:42;7.53;;;4.40;;
43042;SDS011;28667;50.758;6.096;2023-04-16T07:15:08;16.98;;;7.97;;
43042;SDS011;28667;50.758;6.096;2023-04-16T07:17:35;11.40;;;6.10;;
43042;SDS011;28667;50.758;6.096;2023-04-16T07:20:00;9.60;;;4.78;;
43042;SDS011;28667;50.758;6.096;2023-04-16T07:22:26;11.50;;;4.90;;
43042;SDS011;28667;50.758;6.096;2023-04-16T07:24:52;12.27;;;7.43;;
43042;SDS011;28667;50.758;6.096;2023-04-16T07:27:17;17.88;;;8.05;;
43042;SDS011;28667;50.758;6.096;2023-04-16T07:29:43;10.55;;;5.75;;
43042;SDS011;28667;50.758;6.096;2023-04-16T07:32:10;11.82;;;5.80;;
43042;SDS011;28667;50.758;6.096;2023-04-16T07:34:36;15.55;;;6.22;;
43042;SDS011;28667;50.758;6.096;2023-04-16T07:37:02;10.63;;;4.95;;
43042;SDS011;28667;50.758;6.096;2023-04-16T07:39:28;15.80;;;7.28;;
43042;SDS011;28667;50.758;6.096;2023-04-16T07:41:53;16.40;;;6.95;;
43042;SDS011;28667;50.758;6.096;2023-04-16T07:44:19;19.58;;;8.43;;
43042;SDS011;28667;50.758;6.096;2023-04-16T07:46:45;14.00;;;7.50;;
43042;SDS011;28667;50.758;6.096;2023-04-16T07:49:10;15.45;;;7.20;;
43042;SDS011;28667;50.758;6.096;2023-04-16T07:51:36;10.98;;;5.50;;
43042;SDS011;28667;50.758;6.096;2023-04-16T07:54:02;13.43;;;5.40;;
43042;SDS011;28667;50.758;6.096;2023-04-16T07:56:28;11.63;;;6.38;;
43042;SDS011;28667;50.758;6.096;2023-04-16T07:58:53;10.50;;;5.40;;
43042;SDS011;28667;50.758;6.096;2023-04-16T08:01:19;8.68;;;4.40;;
43042;SDS011;28667;50.758;6.096;2023-04-16T08:03:45;21.80;;;9.93;;
43042;SDS011;28667;50.758;6.096;2023-04-16T08:06:11;13.70;;;7.88;;
43042;SDS011;28667;50.758;6.096;2023-04-16T08:08:37;10.82;;;5.13;;
43042;SDS011;28667;50.758;6.096;2023-04-16T08:11:02;16.80;;;7.72;;
43042;SDS011;28667;50.758;6.096;2023-04-16T08:13:28;11.35;;;5.85;;
43042;SDS011;28667;50.758;6.096;2023-04-16T08:15:54;9.02;;;5.43;;
43042;SDS011;28667;50.758;6.096;2023-04-16T08:18:20;10.25;;;6.72;;
43042;SDS011;28667;50.758;6.096;2023-04-16T08:20:45;9.63;;;4.85;;
43042;SDS011;28667;50.758;6.096;2023-04-16T08:23:11;9.68;;;5.25;;
43042;SDS011;28667;50.758;6.096;2023-04-16T08:25:37;5.90;;;3.90;;
43042;SDS011;28667;50.758;6.096;2023-04-16T08:28:03;7.90;;;4.20;;
43042;SDS011;28667;50.758;6.096;2023-04-16T08:30:28;7.75;;;4.68;;
43042;SDS011;28667;50.758;6.096;2023-04-16T08:32:54;6.00;;;3.90;;
43042;SDS011;28667;50.758;6.096;2023-04-16T08:35:20;6.40;;;3.85;;
43042;SDS011;28667;50.758;6.096;2023-04-16T08:37:46;8.25;;;4.35;;
43042;SDS011;28667;50.758;6.096;2023-04-16T08:40:12;9.23;;;4.32;;
43042;SDS011;28667;50.758;6.096;2023-04-16T08:42:43;5.72;;;3.63;;
43042;SDS011;28667;50.758;6.096;2023-04-16T08:45:13;5.03;;;3.47;;
43042;SDS011;28667;50.758;6.096;2023-04-16T08:47:41;5.28;;;3.30;;
43042;SDS011;28667;50.758;6.096;2023-04-16T08:50:13;7.63;;;3.55;;
43042;SDS011;28667;50.758;6.096;2023-04-16T08:52:58;6.03;;;4.07;;
43042;SDS011;28667;50.758;6.096;2023-04-16T09:00:40;6.03;;;3.53;;
43042;SDS011;28667;50.758;6.096;2023-04-16T09:03:07;4.50;;;3.63;;
43042;SDS011;28667;50.758;6.096;2023-04-16T09:05:34;6.20;;;3.30;;
43042;SDS011;28667;50.758;6.096;2023-04-16T09:08:01;4.82;;;3.15;;
43042;SDS011;28667;50.758;6.096;2023-04-16T09:10:28;5.30;;;3.25;;
43042;SDS011;28667;50.758;6.096;2023-04-16T09:12:54;7.07;;;3.03;;
43042;SDS011;28667;50.758;6.096;2023-04-16T09:15:21;4.68;;;2.90;;
43042;SDS011;28667;50.758;6.096;2023-04-16T09:17:48;4.25;;;2.63;;
43042;SDS011;28667;50.758;6.096;2023-04-16T09:20:13;4.00;;;2.58;;
43042;SDS011;28667;50.758;6.096;2023-04-16T09:22:39;3.55;;;3.13;;
43042;SDS011;28667;50.758;6.096;2023-04-16T09:25:05;5.97;;;3.35;;
43042;SDS011;28667;50.758;6.096;2023-04-16T09:27:32;5.63;;;3.10;;
43042;SDS011;28667;50.758;6.096;2023-04-16T09:29:58;6.22;;;3.03;;
43042;SDS011;28667;50.758;6.096;2023-04-16T09:32:24;5.40;;;3.53;;
43042;SDS011;28667;50.758;6.096;2023-04-16T09:37:23;5.53;;;3.08;;
43042;SDS011;28667;50.758;6.096;2023-04-16T09:42:22;6.65;;;3.47;;
43042;SDS011;28667;50.758;6.096;2023-04-16T09:44:55;3.88;;;2.75;;
43042;SDS011;28667;50.758;6.096;2023-04-16T09:47:22;6.82;;;2.90;;
43042;SDS011;28667;50.758;6.096;2023-04-16T09:49:50;5.30;;;3.58;;
43042;SDS011;28667;50.758;6.096;2023-04-16T09:52:16;3.83;;;2.72;;
43042;SDS011;28667;50.758;6.096;2023-04-16T09:54:46;6.00;;;2.65;;
43042;SDS011;28667;50.758;6.096;2023-04-16T09:57:12;2.85;;;2.50;;
43042;SDS011;28667;50.758;6.096;2023-04-16T09:59:39;4.43;;;2.65;;
43042;SDS011;28667;50.758;6.096;2023-04-16T10:02:06;5.22;;;2.85;;
43042;SDS011;28667;50.758;6.096;2023-04-16T10:04:46;6.40;;;3.58;;
43042;SDS011;28667;50.758;6.096;2023-04-16T10:07:14;7.63;;;3.15;;
43042;SDS011;28667;50.758;6.096;2023-04-16T10:09:39;7.13;;;3.83;;
43042;SDS011;28667;50.758;6.096;2023-04-16T10:12:06;5.72;;;3.72;;
43042;SDS011;28667;50.758;6.096;2023-04-16T10:14:32;5.05;;;3.00;;
43042;SDS011;28667;50.758;6.096;2023-04-16T10:16:58;8.15;;;3.92;;
43042;SDS011;28667;50.758;6.096;2023-04-16T10:19:26;9.07;;;4.32;;
43042;SDS011;28667;50.758;6.096;2023-04-16T10:21:52;12.07;;;5.25;;
43042;SDS011;28667;50.758;6.096;2023-04-16T10:24:19;7.88;;;3.80;;
43042;SDS011;28667;50.758;6.096;2023-04-16T10:26:46;8.55;;;4.82;;
43042;SDS011;28667;50.758;6.096;2023-04-16T10:29:14;7.70;;;3.88;;
43042;SDS011;28667;50.758;6.096;2023-04-16T10:31:40;5.15;;;3.55;;
43042;SDS011;28667;50.758;6.096;2023-04-16T10:34:07;5.43;;;3.30;;
43042;SDS011;28667;50.758;6.096;2023-04-16T10:36:35;8.23;;;3.95;;
43042;SDS011;28667;50.758;6.096;2023-04-16T10:39:02;7.07;;;4.25;;
43042;SDS011;28667;50.758;6.096;2023-04-16T10:41:29;5.90;;;3.38;;
43042;SDS011;28667;50.758;6.096;2023-04-16T10:44:07;9.80;;;3.78;;
43042;SDS011;28667;50.758;6.096;2023-04-16T10:46:35;6.28;;;3.58;;
43042;SDS011;28667;50.758;6.096;2023-04-16T10:52:00;6.47;;;4.32;;
43042;SDS011;28667;50.758;6.096;2023-04-16T10:54:33;15.93;;;4.57;;
43042;SDS011;28667;50.758;6.096;2023-04-16T10:57:07;8.45;;;4.40;;
43042;SDS011;28667;50.758;6.096;2023-04-16T10:59:34;7.78;;;4.68;;
43042;SDS011;28667;50.758;6.096;2023-04-16T11:02:05;12.80;;;5.18;;
43042;SDS011;28667;50.758;6.096;2023-04-16T11:04:41;11.45;;;5.13;;
43042;SDS011;28667;50.758;6.096;2023-04-16T11:09:59;11.43;;;6.25;;
43042;SDS011;28667;50.758;6.096;2023-04-16T11:14:56;13.60;;;5.88;;
43042;SDS011;28667;50.758;6.096;2023-04-16T11:17:32;10.90;;;5.65;;
43042;SDS011;28667;50.758;6.096;2023-04-16T11:20:04;12.18;;;6.20;;
43042;SDS011;28667;50.758;6.096;2023-04-16T11:22:35;16.60;;;7.40;;
43042;SDS011;28667;50.758;6.096;2023-04-16T11:25:01;17.38;;;6.50;;
43042;SDS011;28667;50.758;6.096;2023-04-16T11:27:28;14.93;;;7.05;;
43042;SDS011;28667;50.758;6.096;2023-04-16T11:29:58;15.07;;;7.57;;
43042;SDS011;28667;50.758;6.096;2023-04-16T11:32:25;20.35;;;8.02;;
43042;SDS011;28667;50.758;6.096;2023-04-16T11:34:51;23.20;;;8.25;;
43042;SDS011;28667;50.758;6.096;2023-04-16T11:37:20;13.68;;;6.82;;
43042;SDS011;28667;50.758;6.096;2023-04-16T11:39:56;15.80;;;8.30;;
43042;SDS011;28667;50.758;6.096;2023-04-16T11:42:22;22.15;;;9.32;;
43042;SDS011;28667;50.758;6.096;2023-04-16T11:44:53;17.15;;;8.30;;
43042;SDS011;28667;50.758;6.096;2023-04-16T11:47:21;14.43;;;7.18;;
43042;SDS011;28667;50.758;6.096;2023-04-16T11:49:47;19.58;;;7.22;;
43042;SDS011;28667;50.758;6.096;2023-04-16T11:52:23;20.17;;;8.40;;
43042;SDS011;28667;50.758;6.096;2023-04-16T11:54:51;18.35;;;8.63;;
43042;SDS011;28667;50.758;6.096;2023-04-16T11:57:27;16.58;;;7.75;;
43042;SDS011;28667;50.758;6.096;2023-04-16T11:59:58;18.35;;;8.80;;
43042;SDS011;28667;50.758;6.096;2023-04-16T12:05:00;21.63;;;8.80;;
43042;SDS011;28667;50.758;6.096;2023-04-16T12:07:27;23.50;;;10.20;;
43042;SDS011;28667;50.758;6.096;2023-04-16T12:09:57;20.67;;;8.57;;
43042;SDS011;28667;50.758;6.096;2023-04-16T12:12:32;18.85;;;8.48;;
43042;SDS011;28667;50.758;6.096;2023-04-16T12:14:59;17.73;;;7.38;;
43042;SDS011;28667;50.758;6.096;2023-04-16T12:17:32;15.35;;;7.18;;
43042;SDS011;28667;50.758;6.096;2023-04-16T12:20:00;18.05;;;7.55;;
43042;SDS011;28667;50.758;6.096;2023-04-16T12:22:35;17.40;;;7.28;;
43042;SDS011;28667;50.758;6.096;2023-04-16T12:25:02;18.30;;;7.78;;
43042;SDS011;28667;50.758;6.096;2023-04-16T12:30:17;13.63;;;7.38;;
43042;SDS011;28667;50.758;6.096;2023-04-16T12:32:47;14.18;;;7.35;;
43042;SDS011;28667;50.758;6.096;2023-04-16T12:35:30;10.63;;;6.80;;
43042;SDS011;28667;50.758;6.096;2023-04-16T12:37:57;17.40;;;7.88;;
43042;SDS011;28667;50.758;6.096;2023-04-16T12:40:23;14.32;;;7.40;;
43042;SDS011;28667;50.758;6.096;2023-04-16T12:42:49;13.70;;;7.53;;
43042;SDS011;28667;50.758;6.096;2023-04-16T12:45:15;17.13;;;8.25;;
43042;SDS011;28667;50.758;6.096;2023-04-16T12:47:41;16.67;;;9.02;;
43042;SDS011;28667;50.758;6.096;2023-04-16T12:50:07;20.02;;;8.63;;
43042;SDS011;28667;50.758;6.096;2023-04-16T12:52:33;16.75;;;7.22;;
43042;SDS011;28667;50.758;6.096;2023-04-16T12:55:02;14.82;;;7.63;;
43042;SDS011;28667;50.758;6.096;2023-04-16T12:57:28;14.68;;;7.50;;
43042;SDS011;28667;50.758;6.096;2023-04-16T12:59:55;12.77;;;7.05;;
43042;SDS011;28667;50.758;6.096;2023-04-16T13:02:21;13.43;;;7.35;;
43042;SDS011;28667;50.758;6.096;2023-04-16T13:04:48;14.60;;;7.60;;
43042;SDS011;28667;50.758;6.096;2023-04-16T13:07:14;14.73;;;7.00;;
43042;SDS011;28667;50.758;6.096;2023-04-16T13:09:41;15.63;;;8.48;;
43042;SDS011;28667;50.758;6.096;2023-04-16T13:12:07;18.42;;;7.97;;
43042;SDS011;28667;50.758;6.096;2023-04-16T13:14:33;14.70;;;7.47;;
43042;SDS011;28667;50.758;6.096;2023-04-16T13:16:59;17.83;;;7.97;;
43042;SDS011;28667;50.758;6.096;2023-04-16T13:19:25;14.45;;;7.97;;
43042;SDS011;28667;50.758;6.096;2023-04-16T13:21:51;15.90;;;7.65;;
43042;SDS011;28667;50.758;6.096;2023-04-16T13:24:17;15.02;;;7.60;;
43042;SDS011;28667;50.758;6.096;2023-04-16T13:26:43;13.40;;;7.40;;
43042;SDS011;28667;50.758;6.096;2023-04-16T13:29:09;12.82;;;7.47;;
43042;SDS011;28667;50.758;6.096;2023-04-16T13:31:35;20.50;;;8.60;;
43042;SDS011;28667;50.758;6.096;2023-04-16T13:34:01;18.88;;;8.60;;
43042;SDS011;28667;50.758;6.096;2023-04-16T13:36:27;18.05;;;8.32;;
43042;SDS011;28667;50.758;6.096;2023-04-16T13:38:55;20.70;;;9.55;;
43042;SDS011;28667;50.758;6.096;2023-04-16T13:41:20;16.90;;;7.38;;
43042;SDS011;28667;50.758;6.096;2023-04-16T13:43:46;20.15;;;9.30;;
43042;SDS011;28667;50.758;6.096;2023-04-16T13:46:12;21.05;;;7.95;;
43042;SDS011;28667;50.758;6.096;2023-04-16T13:48:37;16.55;;;7.75;;
43042;SDS011;28667;50.758;6.096;2023-04-16T13:51:03;17.42;;;8.07;;
43042;SDS011;28667;50.758;6.096;2023-04-16T13:53:29;16.42;;;8.07;;
43042;SDS011;28667;50.758;6.096;2023-04-16T13:55:55;20.25;;;8.80;;
43042;SDS011;28667;50.758;6.096;2023-04-16T13:58:21;18.85;;;7.78;;
43042;SDS011;28667;50.758;6.096;2023-04-16T14:00:47;14.80;;;7.13;;
43042;SDS011;28667;50.758;6.096;2023-04-16T14:03:12;15.02;;;8.07;;
43042;SDS011;28667;50.758;6.096;2023-04-16T14:05:38;16.13;;;8.00;;
43042;SDS011;28667;50.758;6.096;2023-04-16T14:08:05;16.48;;;8.45;;
43042;SDS011;28667;50.758;6.096;2023-04-16T14:10:31;17.10;;;8.10;;
43042;SDS011;28667;50.758;6.096;2023-04-16T14:12:57;13.48;;;7.53;;
43042;SDS011;28667;50.758;6.096;2023-04-16T14:15:23;24.02;;;9.00;;
43042;SDS011;28667;50.758;6.096;2023-04-16T14:17:51;17.60;;;7.63;;
43042;SDS011;28667;50.758;6.096;2023-04-16T14:20:17;17.60;;;8.38;;
43042;SDS011;28667;50.758;6.096;2023-04-16T14:22:43;15.38;;;8.60;;
43042;SDS011;28667;50.758;6.096;2023-04-16T14:25:10;16.48;;;7.80;;
43042;SDS011;28667;50.758;6.096;2023-04-16T14:27:36;20.88;;;9.00;;
43042;SDS011;28667;50.758;6.096;2023-04-16T14:30:02;20.15;;;8.80;;
43042;SDS011;28667;50.758;6.096;2023-04-16T14:32:29;16.00;;;7.80;;
43042;SDS011;28667;50.758;6.096;2023-04-16T14:34:55;19.52;;;8.05;;
43042;SDS011;28667;50.758;6.096;2023-04-16T14:37:21;16.02;;;7.80;;
43042;SDS011;28667;50.758;6.096;2023-04-16T14:39:47;18.10;;;8.95;;
43042;SDS011;28667;50.758;6.096;2023-04-16T14:42:14;15.98;;;8.57;;
43042;SDS011;28667;50.758;6.096;2023-04-16T14:44:39;13.95;;;7.60;;
43042;SDS011;28667;50.758;6.096;2023-04-16T14:47:05;11.95;;;7.60;;
43042;SDS011;28667;50.758;6.096;2023-04-16T14:49:32;17.98;;;8.60;;
43042;SDS011;28667;50.758;6.096;2023-04-16T14:51:59;13.68;;;7.47;;
43042;SDS011;28667;50.758;6.096;2023-04-16T14:54:26;21.65;;;8.35;;
43042;SDS011;28667;50.758;6.096;2023-04-16T14:56:52;17.17;;;8.38;;
43042;SDS011;28667;50.758;6.096;2023-04-16T14:59:18;17.75;;;8.30;;
43042;SDS011;28667;50.758;6.096;2023-04-16T15:01:44;17.08;;;7.95;;
43042;SDS011;28667;50.758;6.096;2023-04-16T15:04:10;20.35;;;8.23;;
43042;SDS011;28667;50.758;6.096;2023-04-16T15:06:36;16.75;;;8.65;;